METAR Data
IDs: Format: Raw Decoded Include TAF

Data at: 1605 UTC 20 Sep 2018

METAR for:KSNS (Salinas Muni, CA, US)
Text:KSNS 201553Z 14007KT 8SM CLR 15/09 A2988 RMK AO2 SLP126 T01500094
Temperature: 15.0°C ( 59°F)
Dewpoint: 9.4°C ( 49°F) [RH = 69%]
Pressure (altimeter):29.88 inches Hg (1011.9 mb) [Sea level pressure: 1012.6 mb]
Winds:from the SE (140 degrees) at 8 MPH (7 knots; 3.6 m/s)
Visibility: 8 sm ( 13 km)
Ceiling:at least 12,000 feet AGL
Clouds:sky clear below 12,000 feet AGL
Text:KSNS 201453Z 12005KT 7SM CLR 12/09 A2986 RMK AO2 SLP122 T01170089 53016
Temperature: 11.7°C ( 53°F)
Dewpoint: 8.9°C ( 48°F) [RH = 83%]
Pressure (altimeter):29.86 inches Hg (1011.3 mb) [Sea level pressure: 1012.2 mb]
Winds:from the ESE (120 degrees) at 6 MPH (5 knots; 2.6 m/s)
Visibility: 7 sm ( 11 km)
Ceiling:at least 12,000 feet AGL
Clouds:sky clear below 12,000 feet AGL
Text:KSNS 201353Z 14006KT 8SM CLR 10/08 A2984 RMK AO2 SLP114 T01000083
Temperature: 10.0°C ( 50°F)
Dewpoint: 8.3°C ( 47°F) [RH = 89%]
Pressure (altimeter):29.84 inches Hg (1010.6 mb) [Sea level pressure: 1011.4 mb]
Winds:from the SE (140 degrees) at 7 MPH (6 knots; 3.1 m/s)
Visibility: 8 sm ( 13 km)
Ceiling:at least 12,000 feet AGL
Clouds:sky clear below 12,000 feet AGL
Text:KSNS 201253Z 13006KT 8SM CLR 11/09 A2983 RMK AO2 SLP109 T01110089
Temperature: 11.1°C ( 52°F)
Dewpoint: 8.9°C ( 48°F) [RH = 86%]
Pressure (altimeter):29.83 inches Hg (1010.2 mb) [Sea level pressure: 1010.9 mb]
Winds:from the SE (130 degrees) at 7 MPH (6 knots; 3.1 m/s)
Visibility: 8 sm ( 13 km)
Ceiling:at least 12,000 feet AGL
Clouds:sky clear below 12,000 feet AGL
Text:KSNS 201153Z 12005KT 7SM CLR 11/09 A2982 RMK AO2 SLP105 T01110094 10139 20100 56002
Temperature: 11.1°C ( 52°F)
Dewpoint: 9.4°C ( 49°F) [RH = 89%]
Pressure (altimeter):29.82 inches Hg (1009.9 mb) [Sea level pressure: 1010.5 mb]
Winds:from the ESE (120 degrees) at 6 MPH (5 knots; 2.6 m/s)
Visibility: 7 sm ( 11 km)
Ceiling:at least 12,000 feet AGL
Clouds:sky clear below 12,000 feet AGL
Text:KSNS 201053Z AUTO 13004KT 7SM CLR 11/09 A2982 RMK AO2 SLP105 T01060089
Temperature: 10.6°C ( 51°F)
Dewpoint: 8.9°C ( 48°F) [RH = 89%]
Pressure (altimeter):29.82 inches Hg (1009.9 mb) [Sea level pressure: 1010.5 mb]
Winds:from the SE (130 degrees) at 5 MPH (4 knots; 2.1 m/s)
Visibility: 7 sm ( 11 km)
Ceiling:at least 12,000 feet AGL
Clouds:sky clear below 12,000 feet AGL
QC Flag:automated observation with no human augmentation
Text:KSNS 200953Z AUTO 10004KT 7SM CLR 10/08 A2982 RMK AO2 SLP107 T01000083
Temperature: 10.0°C ( 50°F)
Dewpoint: 8.3°C ( 47°F) [RH = 89%]
Pressure (altimeter):29.82 inches Hg (1009.9 mb) [Sea level pressure: 1010.7 mb]
Winds:from the E (100 degrees) at 5 MPH (4 knots; 2.1 m/s)
Visibility: 7 sm ( 11 km)
Ceiling:at least 12,000 feet AGL
Clouds:sky clear below 12,000 feet AGL
QC Flag:automated observation with no human augmentation
Text:KSNS 200853Z AUTO 17004KT 7SM CLR 11/09 A2982 RMK AO2 SLP108 T01110094 58004
Temperature: 11.1°C ( 52°F)
Dewpoint: 9.4°C ( 49°F) [RH = 89%]
Pressure (altimeter):29.82 inches Hg (1009.9 mb) [Sea level pressure: 1010.8 mb]
Winds:from the S (170 degrees) at 5 MPH (4 knots; 2.1 m/s)
Visibility: 7 sm ( 11 km)
Ceiling:at least 12,000 feet AGL
Clouds:sky clear below 12,000 feet AGL
QC Flag:automated observation with no human augmentation
Text:KSNS 200753Z AUTO 00000KT 6SM BR CLR 13/11 A2983 RMK AO2 SLP109 T01330111 402060111
Temperature: 13.3°C ( 56°F)
Dewpoint: 11.1°C ( 52°F) [RH = 87%]
Pressure (altimeter):29.83 inches Hg (1010.2 mb) [Sea level pressure: 1010.9 mb]
Winds:calm
Visibility: 6 sm ( 10 km)
Ceiling:at least 12,000 feet AGL
Clouds:sky clear below 12,000 feet AGL
Weather:BR (mist)
QC Flag:automated observation with no human augmentation
Text:KSNS 200653Z AUTO 36003KT 6SM HZ CLR 13/11 A2983 RMK AO2 SLP111 T01330106
Temperature: 13.3°C ( 56°F)
Dewpoint: 10.6°C ( 51°F) [RH = 84%]
Pressure (altimeter):29.83 inches Hg (1010.2 mb) [Sea level pressure: 1011.1 mb]
Winds:from the N (360 degrees) at 3 MPH (3 knots; 1.5 m/s)
Visibility: 6 sm ( 10 km)
Ceiling:at least 12,000 feet AGL
Clouds:sky clear below 12,000 feet AGL
Weather:HZ (haze)
QC Flag:automated observation with no human augmentation
Text:KSNS 200553Z AUTO 34006KT 7SM CLR 14/11 A2983 RMK AO2 SLP111 T01390111 10183 20139 50004
Temperature: 13.9°C ( 57°F)
Dewpoint: 11.1°C ( 52°F) [RH = 83%]
Pressure (altimeter):29.83 inches Hg (1010.2 mb) [Sea level pressure: 1011.1 mb]
Winds:from the NNW (340 degrees) at 7 MPH (6 knots; 3.1 m/s)
Visibility: 7 sm ( 11 km)
Ceiling:at least 12,000 feet AGL
Clouds:sky clear below 12,000 feet AGL
QC Flag:automated observation with no human augmentation
Text:KSNS 200453Z AUTO 32006KT 8SM CLR 15/11 A2984 RMK AO2 SLP113 T01500111
Temperature: 15.0°C ( 59°F)
Dewpoint: 11.1°C ( 52°F) [RH = 77%]
Pressure (altimeter):29.84 inches Hg (1010.6 mb) [Sea level pressure: 1011.3 mb]
Winds:from the NW (320 degrees) at 7 MPH (6 knots; 3.1 m/s)
Visibility: 8 sm ( 13 km)
Ceiling:at least 12,000 feet AGL
Clouds:sky clear below 12,000 feet AGL
QC Flag:automated observation with no human augmentation